sensor_id;sensor_type;location;lat;lon;timestamp;pressure;altitude;pressure_sealevel;temperature;humidity
46007;BME280;31738;50.188;8.524;2023-12-04T00:01:00;99047.56;;;-0.11;80.73
46007;BME280;31738;50.188;8.524;2023-12-04T00:03:25;99046.34;;;-0.09;80.59
46007;BME280;31738;50.188;8.524;2023-12-04T00:05:51;99037.59;;;-0.09;81.07
46007;BME280;31738;50.188;8.524;2023-12-04T00:08:16;99037.59;;;-0.09;80.72
46007;BME280;31738;50.188;8.524;2023-12-04T00:10:42;99038.00;;;-0.12;81.02
46007;BME280;31738;50.188;8.524;2023-12-04T00:13:07;99034.56;;;-0.13;80.75
46007;BME280;31738;50.188;8.524;2023-12-04T00:15:32;99034.78;;;-0.14;80.73
46007;BME280;31738;50.188;8.524;2023-12-04T00:17:58;99030.28;;;-0.14;81.15
46007;BME280;31738;50.188;8.524;2023-12-04T00:20:23;99022.59;;;-0.15;80.70
46007;BME280;31738;50.188;8.524;2023-12-04T00:22:49;99021.78;;;-0.16;80.92
46007;BME280;31738;50.188;8.524;2023-12-04T00:25:15;99022.19;;;-0.19;80.77
46007;BME280;31738;50.188;8.524;2023-12-04T00:27:40;99005.94;;;-0.22;80.79
46007;BME280;31738;50.188;8.524;2023-12-04T00:30:06;99015.63;;;-0.29;80.78
46007;BME280;31738;50.188;8.524;2023-12-04T00:32:32;99010.75;;;-0.32;81.14
46007;BME280;31738;50.188;8.524;2023-12-04T00:34:57;99019.69;;;-0.33;81.12
46007;BME280;31738;50.188;8.524;2023-12-04T00:37:23;99005.91;;;-0.35;81.16
46007;BME280;31738;50.188;8.524;2023-12-04T00:39:48;99002.47;;;-0.36;81.49
46007;BME280;31738;50.188;8.524;2023-12-04T00:42:14;98995.56;;;-0.37;81.24
46007;BME280;31738;50.188;8.524;2023-12-04T00:44:39;98993.31;;;-0.40;81.49
46007;BME280;31738;50.188;8.524;2023-12-04T00:47:05;98989.25;;;-0.42;81.40
46007;BME280;31738;50.188;8.524;2023-12-04T00:49:31;98993.13;;;-0.45;81.50
46007;BME280;31738;50.188;8.524;2023-12-04T00:51:56;98992.28;;;-0.45;81.23
46007;BME280;31738;50.188;8.524;2023-12-04T00:54:21;98983.16;;;-0.49;81.67
46007;BME280;31738;50.188;8.524;2023-12-04T00:56:47;98984.16;;;-0.50;81.60
46007;BME280;31738;50.188;8.524;2023-12-04T00:59:12;98985.56;;;-0.54;81.03
46007;BME280;31738;50.188;8.524;2023-12-04T01:01:38;98988.59;;;-0.57;81.63
46007;BME280;31738;50.188;8.524;2023-12-04T01:04:04;98970.56;;;-0.60;81.47
46007;BME280;31738;50.188;8.524;2023-12-04T01:06:29;98977.00;;;-0.63;81.45
46007;BME280;31738;50.188;8.524;2023-12-04T01:08:55;98969.31;;;-0.64;81.13
46007;BME280;31738;50.188;8.524;2023-12-04T01:11:21;98960.81;;;-0.66;81.39
46007;BME280;31738;50.188;8.524;2023-12-04T01:13:48;98959.16;;;-0.67;81.19
46007;BME280;31738;50.188;8.524;2023-12-04T01:16:14;98953.31;;;-0.69;81.65
46007;BME280;31738;50.188;8.524;2023-12-04T01:18:40;98960.78;;;-0.73;81.26
46007;BME280;31738;50.188;8.524;2023-12-04T01:21:07;98958.13;;;-0.73;81.51
46007;BME280;31738;50.188;8.524;2023-12-04T01:23:34;98954.28;;;-0.77;81.54
46007;BME280;31738;50.188;8.524;2023-12-04T01:26:00;98954.69;;;-0.80;81.79
46007;BME280;31738;50.188;8.524;2023-12-04T01:28:25;98954.06;;;-0.82;81.14
46007;BME280;31738;50.188;8.524;2023-12-04T01:30:51;98948.16;;;-0.84;81.38
46007;BME280;31738;50.188;8.524;2023-12-04T01:33:16;98949.19;;;-0.85;81.58
46007;BME280;31738;50.188;8.524;2023-12-04T01:35:41;98946.94;;;-0.88;81.56
46007;BME280;31738;50.188;8.524;2023-12-04T01:38:07;98949.75;;;-0.89;81.38
46007;BME280;31738;50.188;8.524;2023-12-04T01:40:33;98951.78;;;-0.91;81.48
46007;BME280;31738;50.188;8.524;2023-12-04T01:42:59;98940.22;;;-0.97;81.86
46007;BME280;31738;50.188;8.524;2023-12-04T01:45:24;98937.16;;;-1.00;81.61
46007;BME280;31738;50.188;8.524;2023-12-04T01:47:50;98933.88;;;-1.02;81.49
46007;BME280;31738;50.188;8.524;2023-12-04T01:50:15;98932.28;;;-1.03;81.88
46007;BME280;31738;50.188;8.524;2023-12-04T01:52:41;98925.78;;;-1.07;81.49
46007;BME280;31738;50.188;8.524;2023-12-04T01:55:08;98916.88;;;-1.06;81.68
46007;BME280;31738;50.188;8.524;2023-12-04T01:57:34;98922.53;;;-1.09;81.99
46007;BME280;31738;50.188;8.524;2023-12-04T02:00:00;98919.69;;;-1.08;81.59
46007;BME280;31738;50.188;8.524;2023-12-04T02:02:28;98929.41;;;-1.08;81.72
46007;BME280;31738;50.188;8.524;2023-12-04T02:04:55;98927.78;;;-1.09;81.81
46007;BME280;31738;50.188;8.524;2023-12-04T02:07:21;98926.53;;;-1.13;81.60
46007;BME280;31738;50.188;8.524;2023-12-04T02:09:46;98924.09;;;-1.15;81.41
46007;BME280;31738;50.188;8.524;2023-12-04T02:12:12;98938.28;;;-1.16;81.93
46007;BME280;31738;50.188;8.524;2023-12-04T02:14:37;98934.63;;;-1.15;81.66
46007;BME280;31738;50.188;8.524;2023-12-04T02:17:05;98924.94;;;-1.14;81.83
46007;BME280;31738;50.188;8.524;2023-12-04T02:19:31;98921.25;;;-1.20;81.94
46007;BME280;31738;50.188;8.524;2023-12-04T02:21:56;98917.19;;;-1.22;81.83
46007;BME280;31738;50.188;8.524;2023-12-04T02:24:22;98919.81;;;-1.22;81.78
46007;BME280;31738;50.188;8.524;2023-12-04T02:26:54;98911.31;;;-1.24;81.61
46007;BME280;31738;50.188;8.524;2023-12-04T02:29:26;98906.25;;;-1.26;81.95
46007;BME280;31738;50.188;8.524;2023-12-04T02:31:56;98901.78;;;-1.25;81.86
46007;BME280;31738;50.188;8.524;2023-12-04T02:34:23;98899.97;;;-1.25;81.47
46007;BME280;31738;50.188;8.524;2023-12-04T02:36:50;98900.16;;;-1.26;81.87
46007;BME280;31738;50.188;8.524;2023-12-04T02:39:16;98891.66;;;-1.28;81.72
46007;BME280;31738;50.188;8.524;2023-12-04T02:41:42;98888.22;;;-1.29;81.56
46007;BME280;31738;50.188;8.524;2023-12-04T02:44:07;98889.41;;;-1.31;81.63
46007;BME280;31738;50.188;8.524;2023-12-04T02:46:33;98885.78;;;-1.30;81.70
46007;BME280;31738;50.188;8.524;2023-12-04T02:48:58;98892.03;;;-1.31;82.11
46007;BME280;31738;50.188;8.524;2023-12-04T02:51:24;98882.53;;;-1.32;81.85
46007;BME280;31738;50.188;8.524;2023-12-04T02:53:51;98878.69;;;-1.30;81.51
46007;BME280;31738;50.188;8.524;2023-12-04T02:56:17;98871.81;;;-1.31;81.54
46007;BME280;31738;50.188;8.524;2023-12-04T02:58:42;98877.91;;;-1.30;82.08
46007;BME280;31738;50.188;8.524;2023-12-04T03:01:08;98870.59;;;-1.28;81.67
46007;BME280;31738;50.188;8.524;2023-12-04T03:03:33;98866.56;;;-1.31;81.72
46007;BME280;31738;50.188;8.524;2023-12-04T03:05:59;98870.59;;;-1.28;81.78
46007;BME280;31738;50.188;8.524;2023-12-04T03:08:24;98857.44;;;-1.28;81.72
46007;BME280;31738;50.188;8.524;2023-12-04T03:10:50;98854.03;;;-1.29;81.94
46007;BME280;31738;50.188;8.524;2023-12-04T03:13:15;98846.34;;;-1.30;81.49
46007;BME280;31738;50.188;8.524;2023-12-04T03:15:41;98853.41;;;-1.31;82.11
46007;BME280;31738;50.188;8.524;2023-12-04T03:18:06;98847.94;;;-1.29;82.07
46007;BME280;31738;50.188;8.524;2023-12-04T03:20:32;98850.38;;;-1.28;81.96
46007;BME280;31738;50.188;8.524;2023-12-04T03:22:58;98842.31;;;-1.26;81.75
46007;BME280;31738;50.188;8.524;2023-12-04T03:25:23;98843.31;;;-1.27;82.05
46007;BME280;31738;50.188;8.524;2023-12-04T03:27:49;98843.31;;;-1.27;81.79
46007;BME280;31738;50.188;8.524;2023-12-04T03:30:14;98837.84;;;-1.26;82.03
46007;BME280;31738;50.188;8.524;2023-12-04T03:32:40;98837.03;;;-1.26;81.72
46007;BME280;31738;50.188;8.524;2023-12-04T03:35:05;98828.53;;;-1.28;81.78
46007;BME280;31738;50.188;8.524;2023-12-04T03:37:31;98828.53;;;-1.28;82.00
46007;BME280;31738;50.188;8.524;2023-12-04T03:39:56;98825.69;;;-1.27;82.03
46007;BME280;31738;50.188;8.524;2023-12-04T03:42:22;98818.19;;;-1.30;81.61
46007;BME280;31738;50.188;8.524;2023-12-04T03:44:47;98815.56;;;-1.30;81.53
46007;BME280;31738;50.188;8.524;2023-12-04T03:47:12;98818.41;;;-1.31;81.95
46007;BME280;31738;50.188;8.524;2023-12-04T03:49:38;98809.72;;;-1.32;81.61
46007;BME280;31738;50.188;8.524;2023-12-04T03:52:04;98807.28;;;-1.33;81.89
46007;BME280;31738;50.188;8.524;2023-12-04T03:54:29;98805.44;;;-1.33;81.59
46007;BME280;31738;50.188;8.524;2023-12-04T03:56:55;98807.63;;;-1.36;81.64
46007;BME280;31738;50.188;8.524;2023-12-04T03:59:20;98801.78;;;-1.38;81.63
46007;BME280;31738;50.188;8.524;2023-12-04T04:01:46;98800.13;;;-1.39;82.01
46007;BME280;31738;50.188;8.524;2023-12-04T04:04:11;98794.09;;;-1.40;81.68
46007;BME280;31738;50.188;8.524;2023-12-04T04:06:36;98787.00;;;-1.39;81.99
46007;BME280;31738;50.188;8.524;2023-12-04T04:09:04;98790.63;;;-1.40;81.50
46007;BME280;31738;50.188;8.524;2023-12-04T04:11:30;98786.00;;;-1.38;81.73
46007;BME280;31738;50.188;8.524;2023-12-04T04:13:55;98788.63;;;-1.38;81.87
46007;BME280;31738;50.188;8.524;2023-12-04T04:16:21;98782.34;;;-1.37;81.61
46007;BME280;31738;50.188;8.524;2023-12-04T04:18:46;98791.47;;;-1.40;81.93
46007;BME280;31738;50.188;8.524;2023-12-04T04:21:12;98782.75;;;-1.40;81.31
46007;BME280;31738;50.188;8.524;2023-12-04T04:23:37;98780.13;;;-1.40;81.26
46007;BME280;31738;50.188;8.524;2023-12-04T04:26:03;98788.00;;;-1.40;81.91
46007;BME280;31738;50.188;8.524;2023-12-04T04:28:28;98787.19;;;-1.41;81.66
46007;BME280;31738;50.188;8.524;2023-12-04T04:30:54;98784.34;;;-1.39;81.19
46007;BME280;31738;50.188;8.524;2023-12-04T04:33:19;98790.25;;;-1.37;81.55
46007;BME280;31738;50.188;8.524;2023-12-04T04:35:45;98786.00;;;-1.38;81.11
46007;BME280;31738;50.188;8.524;2023-12-04T04:38:10;98788.44;;;-1.37;81.67
46007;BME280;31738;50.188;8.524;2023-12-04T04:40:36;98793.50;;;-1.35;81.14
46007;BME280;31738;50.188;8.524;2023-12-04T04:43:01;98792.47;;;-1.34;81.26
46007;BME280;31738;50.188;8.524;2023-12-04T04:45:26;98798.56;;;-1.34;81.19
46007;BME280;31738;50.188;8.524;2023-12-04T04:47:52;98789.06;;;-1.35;80.96
46007;BME280;31738;50.188;8.524;2023-12-04T04:50:17;98788.25;;;-1.35;81.60
46007;BME280;31738;50.188;8.524;2023-12-04T04:52:43;98785.59;;;-1.35;81.33
46007;BME280;31738;50.188;8.524;2023-12-04T04:55:08;98786.59;;;-1.36;81.08
46007;BME280;31738;50.188;8.524;2023-12-04T04:57:34;98789.22;;;-1.36;80.80
46007;BME280;31738;50.188;8.524;2023-12-04T04:59:59;98781.53;;;-1.38;80.69
46007;BME280;31738;50.188;8.524;2023-12-04T05:02:25;98781.53;;;-1.38;81.53
46007;BME280;31738;50.188;8.524;2023-12-04T05:04:50;98770.81;;;-1.36;80.82
46007;BME280;31738;50.188;8.524;2023-12-04T05:07:16;98766.38;;;-1.36;81.07
46007;BME280;31738;50.188;8.524;2023-12-04T05:09:41;98772.25;;;-1.34;81.01
46007;BME280;31738;50.188;8.524;2023-12-04T05:12:07;98761.31;;;-1.37;80.73
46007;BME280;31738;50.188;8.524;2023-12-04T05:14:32;98752.59;;;-1.38;81.28
46007;BME280;31738;50.188;8.524;2023-12-04T05:16:58;98757.88;;;-1.38;80.81
46007;BME280;31738;50.188;8.524;2023-12-04T05:19:23;98759.06;;;-1.40;80.89
46007;BME280;31738;50.188;8.524;2023-12-04T05:21:49;98761.09;;;-1.42;81.28
46007;BME280;31738;50.188;8.524;2023-12-04T05:24:14;98751.19;;;-1.40;81.44
46007;BME280;31738;50.188;8.524;2023-12-04T05:26:40;98747.94;;;-1.42;81.21
46007;BME280;31738;50.188;8.524;2023-12-04T05:29:05;98752.41;;;-1.43;81.37
46007;BME280;31738;50.188;8.524;2023-12-04T05:31:31;98758.47;;;-1.42;81.22
46007;BME280;31738;50.188;8.524;2023-12-04T05:33:56;98756.44;;;-1.40;81.10
46007;BME280;31738;50.188;8.524;2023-12-04T05:36:22;98746.75;;;-1.40;80.81
46007;BME280;31738;50.188;8.524;2023-12-04T05:38:47;98746.75;;;-1.40;80.85
46007;BME280;31738;50.188;8.524;2023-12-04T05:41:13;98746.75;;;-1.40;81.14
46007;BME280;31738;50.188;8.524;2023-12-04T05:43:38;98749.56;;;-1.41;81.27
46007;BME280;31738;50.188;8.524;2023-12-04T05:46:04;98745.94;;;-1.40;81.08
46007;BME280;31738;50.188;8.524;2023-12-04T05:48:29;98739.66;;;-1.39;81.14
46007;BME280;31738;50.188;8.524;2023-12-04T05:50:54;98748.16;;;-1.37;80.63
46007;BME280;31738;50.188;8.524;2023-12-04T05:53:20;98743.53;;;-1.35;80.97
46007;BME280;31738;50.188;8.524;2023-12-04T05:55:45;98741.88;;;-1.36;80.63
46007;BME280;31738;50.188;8.524;2023-12-04T05:58:11;98741.09;;;-1.37;80.71
46007;BME280;31738;50.188;8.524;2023-12-04T06:00:37;98736.63;;;-1.36;80.58
46007;BME280;31738;50.188;8.524;2023-12-04T06:03:02;98728.16;;;-1.38;80.67
46007;BME280;31738;50.188;8.524;2023-12-04T06:05:28;98726.09;;;-1.43;80.84
46007;BME280;31738;50.188;8.524;2023-12-04T06:07:53;98728.94;;;-1.44;80.79
46007;BME280;31738;50.188;8.524;2023-12-04T06:10:19;98724.66;;;-1.45;81.15
46007;BME280;31738;50.188;8.524;2023-12-04T06:12:44;98719.22;;;-1.44;80.83
46007;BME280;31738;50.188;8.524;2023-12-04T06:15:10;98718.41;;;-1.44;80.45
46007;BME280;31738;50.188;8.524;2023-12-04T06:17:35;98710.72;;;-1.46;80.43
46007;BME280;31738;50.188;8.524;2023-12-04T06:20:01;98715.97;;;-1.46;80.41
46007;BME280;31738;50.188;8.524;2023-12-04T06:22:26;98718.81;;;-1.47;80.79
46007;BME280;31738;50.188;8.524;2023-12-04T06:24:52;98729.91;;;-1.45;80.68
46007;BME280;31738;50.188;8.524;2023-12-04T06:27:18;98720.84;;;-1.43;80.80
46007;BME280;31738;50.188;8.524;2023-12-04T06:29:48;98722.03;;;-1.45;80.41
46007;BME280;31738;50.188;8.524;2023-12-04T06:32:14;98721.25;;;-1.46;80.24
46007;BME280;31738;50.188;8.524;2023-12-04T06:34:40;98718.41;;;-1.44;80.58
46007;BME280;31738;50.188;8.524;2023-12-04T06:37:13;98718.41;;;-1.44;80.48
46007;BME280;31738;50.188;8.524;2023-12-04T06:39:40;98715.59;;;-1.43;80.29
46007;BME280;31738;50.188;8.524;2023-12-04T06:42:07;98721.44;;;-1.41;80.20
46007;BME280;31738;50.188;8.524;2023-12-04T06:44:33;98716.19;;;-1.41;80.18
46007;BME280;31738;50.188;8.524;2023-12-04T06:47:03;98736.03;;;-1.38;80.22
46007;BME280;31738;50.188;8.524;2023-12-04T06:49:31;98725.31;;;-1.37;80.56
46007;BME280;31738;50.188;8.524;2023-12-04T06:51:57;98715.59;;;-1.36;80.51
46007;BME280;31738;50.188;8.524;2023-12-04T06:54:22;98717.63;;;-1.38;80.08
46007;BME280;31738;50.188;8.524;2023-12-04T06:56:48;98704.66;;;-1.40;80.25
46007;BME280;31738;50.188;8.524;2023-12-04T06:59:13;98699.00;;;-1.43;80.14
46007;BME280;31738;50.188;8.524;2023-12-04T07:01:39;98706.88;;;-1.43;80.30
46007;BME280;31738;50.188;8.524;2023-12-04T07:04:04;98696.16;;;-1.42;80.10
46007;BME280;31738;50.188;8.524;2023-12-04T07:06:38;98689.69;;;-1.39;80.55
46007;BME280;31738;50.188;8.524;2023-12-04T07:09:04;98681.78;;;-1.39;80.32
46007;BME280;31738;50.188;8.524;2023-12-04T07:11:31;98692.94;;;-1.37;80.45
46007;BME280;31738;50.188;8.524;2023-12-04T07:13:57;98682.22;;;-1.36;80.22
46007;BME280;31738;50.188;8.524;2023-12-04T07:16:22;98683.84;;;-1.35;80.23
46007;BME280;31738;50.188;8.524;2023-12-04T07:18:48;98680.41;;;-1.35;80.20
46007;BME280;31738;50.188;8.524;2023-12-04T07:21:17;98662.63;;;-1.33;80.15
46007;BME280;31738;50.188;8.524;2023-12-04T07:23:48;98660.00;;;-1.33;79.79
46007;BME280;31738;50.188;8.524;2023-12-04T07:26:16;98643.19;;;-1.32;80.05
46007;BME280;31738;50.188;8.524;2023-12-04T07:28:45;98649.25;;;-1.32;80.22
46007;BME280;31738;50.188;8.524;2023-12-04T07:31:11;98656.97;;;-1.30;80.20
46007;BME280;31738;50.188;8.524;2023-12-04T07:33:40;98656.56;;;-1.27;80.04
46007;BME280;31738;50.188;8.524;2023-12-04T07:36:08;98654.91;;;-1.28;80.09
46007;BME280;31738;50.188;8.524;2023-12-04T07:38:34;98650.91;;;-1.24;79.77
46007;BME280;31738;50.188;8.524;2023-12-04T07:41:00;98648.84;;;-1.22;79.87
46007;BME280;31738;50.188;8.524;2023-12-04T07:43:33;98657.16;;;-1.19;79.80
46007;BME280;31738;50.188;8.524;2023-12-04T07:45:59;98661.59;;;-1.19;80.02
46007;BME280;31738;50.188;8.524;2023-12-04T07:48:25;98653.72;;;-1.19;79.87
46007;BME280;31738;50.188;8.524;2023-12-04T07:51:00;98657.78;;;-1.17;80.03
46007;BME280;31738;50.188;8.524;2023-12-04T07:53:29;98653.31;;;-1.16;79.62
46007;BME280;31738;50.188;8.524;2023-12-04T07:56:04;98649.69;;;-1.15;79.81
46007;BME280;31738;50.188;8.524;2023-12-04T07:58:35;98640.78;;;-1.14;79.75
46007;BME280;31738;50.188;8.524;2023-12-04T08:01:04;98648.88;;;-1.09;79.64
46007;BME280;31738;50.188;8.524;2023-12-04T08:03:31;98646.06;;;-1.08;79.53
46007;BME280;31738;50.188;8.524;2023-12-04T08:06:00;98639.56;;;-1.05;79.78
46007;BME280;31738;50.188;8.524;2023-12-04T08:08:26;98648.47;;;-1.06;79.37
46007;BME280;31738;50.188;8.524;2023-12-04T08:10:51;98648.06;;;-1.03;79.19
46007;BME280;31738;50.188;8.524;2023-12-04T08:13:17;98655.16;;;-1.04;79.48
46007;BME280;31738;50.188;8.524;2023-12-04T08:15:43;98652.72;;;-0.99;79.13
46007;BME280;31738;50.188;8.524;2023-12-04T08:18:09;98649.69;;;-0.96;79.38
46007;BME280;31738;50.188;8.524;2023-12-04T08:20:34;98651.31;;;-0.88;79.23
46007;BME280;31738;50.188;8.524;2023-12-04T08:23:00;98643.00;;;-0.85;79.00
46007;BME280;31738;50.188;8.524;2023-12-04T08:25:25;98639.97;;;-0.82;79.27
46007;BME280;31738;50.188;8.524;2023-12-04T08:27:51;98632.69;;;-0.80;79.16
46007;BME280;31738;50.188;8.524;2023-12-04T08:30:17;98640.19;;;-0.77;78.60
46007;BME280;31738;50.188;8.524;2023-12-04T08:32:43;98634.31;;;-0.73;78.48
46007;BME280;31738;50.188;8.524;2023-12-04T08:35:08;98626.00;;;-0.70;78.54
46007;BME280;31738;50.188;8.524;2023-12-04T08:37:34;98632.47;;;-0.66;78.59
46007;BME280;31738;50.188;8.524;2023-12-04T08:39:59;98612.84;;;-0.63;78.37
46007;BME280;31738;50.188;8.524;2023-12-04T08:42:25;98616.44;;;-0.58;77.93
46007;BME280;31738;50.188;8.524;2023-12-04T08:44:51;98599.41;;;-0.55;78.44
46007;BME280;31738;50.188;8.524;2023-12-04T08:47:17;98605.50;;;-0.55;77.87
46007;BME280;31738;50.188;8.524;2023-12-04T08:49:43;98597.59;;;-0.48;77.88
46007;BME280;31738;50.188;8.524;2023-12-04T08:52:09;98598.22;;;-0.46;78.09
46007;BME280;31738;50.188;8.524;2023-12-04T08:54:38;98593.31;;;-0.43;77.73
46007;BME280;31738;50.188;8.524;2023-12-04T08:57:04;98582.00;;;-0.43;78.31
46007;BME280;31738;50.188;8.524;2023-12-04T08:59:29;98584.22;;;-0.40;77.71
46007;BME280;31738;50.188;8.524;2023-12-04T09:01:56;98586.84;;;-0.40;77.70
46007;BME280;31738;50.188;8.524;2023-12-04T09:04:21;98591.69;;;-0.37;78.03
46007;BME280;31738;50.188;8.524;2023-12-04T09:06:47;98590.66;;;-0.36;77.39
46007;BME280;31738;50.188;8.524;2023-12-04T09:09:12;98585.63;;;-0.38;77.61
46007;BME280;31738;50.188;8.524;2023-12-04T09:11:44;98585.41;;;-0.36;77.02
46007;BME280;31738;50.188;8.524;2023-12-04T09:14:09;98583.97;;;-0.32;77.34
46007;BME280;31738;50.188;8.524;2023-12-04T09:16:35;98592.28;;;-0.29;77.12
46007;BME280;31738;50.188;8.524;2023-12-04T09:19:01;98589.22;;;-0.32;76.65
46007;BME280;31738;50.188;8.524;2023-12-04T09:21:29;98587.22;;;-0.30;77.14
46007;BME280;31738;50.188;8.524;2023-12-04T09:23:55;98612.56;;;-0.36;76.92
46007;BME280;31738;50.188;8.524;2023-12-04T09:26:20;98605.44;;;-0.35;77.22
46007;BME280;31738;50.188;8.524;2023-12-04T09:28:46;98601.41;;;-0.31;76.98
46007;BME280;31738;50.188;8.524;2023-12-04T09:31:11;98608.28;;;-0.30;76.87
46007;BME280;31738;50.188;8.524;2023-12-04T09:33:37;98606.88;;;-0.26;77.01
46007;BME280;31738;50.188;8.524;2023-12-04T09:36:02;98612.31;;;-0.21;77.03
46007;BME280;31738;50.188;8.524;2023-12-04T09:38:28;98603.97;;;-0.18;76.70
46007;BME280;31738;50.188;8.524;2023-12-04T09:40:58;98597.72;;;-0.17;77.02
46007;BME280;31738;50.188;8.524;2023-12-04T09:43:25;98586.97;;;-0.16;76.30
46007;BME280;31738;50.188;8.524;2023-12-04T09:45:51;98592.59;;;-0.12;76.83
46007;BME280;31738;50.188;8.524;2023-12-04T09:48:17;98591.19;;;-0.08;76.23
46007;BME280;31738;50.188;8.524;2023-12-04T09:50:43;98591.97;;;-0.08;76.22
46007;BME280;31738;50.188;8.524;2023-12-04T09:53:12;98589.19;;;-0.13;76.30
46007;BME280;31738;50.188;8.524;2023-12-04T09:55:39;98583.91;;;-0.13;76.30
46007;BME280;31738;50.188;8.524;2023-12-04T09:58:05;98586.91;;;-0.09;76.40
46007;BME280;31738;50.188;8.524;2023-12-04T10:00:32;98578.59;;;-0.06;76.21
46007;BME280;31738;50.188;8.524;2023-12-04T10:02:57;98582.66;;;-0.04;76.41
46007;BME280;31738;50.188;8.524;2023-12-04T10:05:25;98577.38;;;-0.04;76.20
46007;BME280;31738;50.188;8.524;2023-12-04T10:07:50;98584.25;;;-0.03;76.58
46007;BME280;31738;50.188;8.524;2023-12-04T10:10:16;98568.06;;;-0.06;75.65
46007;BME280;31738;50.188;8.524;2023-12-04T10:12:43;98589.97;;;-0.06;76.65
46007;BME280;31738;50.188;8.524;2023-12-04T10:15:10;98574.75;;;-0.04;75.71
46007;BME280;31738;50.188;8.524;2023-12-04T10:17:37;98570.88;;;-0.01;76.24
46007;BME280;31738;50.188;8.524;2023-12-04T10:20:11;98574.53;;;-0.02;75.72
46007;BME280;31738;50.188;8.524;2023-12-04T10:23:01;98569.06;;;-0.01;75.67
46007;BME280;31738;50.188;8.524;2023-12-04T10:25:28;98558.91;;;0.03;76.32
46007;BME280;31738;50.188;8.524;2023-12-04T10:28:07;98550.59;;;0.06;75.43
46007;BME280;31738;50.188;8.524;2023-12-04T10:30:33;98538.19;;;0.07;75.64
46007;BME280;31738;50.188;8.524;2023-12-04T10:33:04;98542.03;;;0.11;75.75
46007;BME280;31738;50.188;8.524;2023-12-04T10:35:31;98532.88;;;0.13;75.53
46007;BME280;31738;50.188;8.524;2023-12-04T10:37:58;98517.25;;;0.18;75.45
46007;BME280;31738;50.188;8.524;2023-12-04T10:40:32;98531.81;;;0.21;75.80
46007;BME280;31738;50.188;8.524;2023-12-04T10:45:41;98525.72;;;0.20;75.13
46007;BME280;31738;50.188;8.524;2023-12-04T10:48:08;98537.06;;;0.27;75.18
46007;BME280;31738;50.188;8.524;2023-12-04T10:50:36;98548.97;;;0.36;75.42
46007;BME280;31738;50.188;8.524;2023-12-04T10:53:04;98547.72;;;0.39;75.05
46007;BME280;31738;50.188;8.524;2023-12-04T10:55:33;98543.88;;;0.41;74.77
46007;BME280;31738;50.188;8.524;2023-12-04T10:58:06;98549.78;;;0.37;74.65
46007;BME280;31738;50.188;8.524;2023-12-04T11:00:38;98540.63;;;0.39;74.75
46007;BME280;31738;50.188;8.524;2023-12-04T11:03:07;98544.88;;;0.40;74.68
46007;BME280;31738;50.188;8.524;2023-12-04T11:05:37;98546.66;;;0.46;74.67
46007;BME280;31738;50.188;8.524;2023-12-04T11:08:05;98547.44;;;0.53;74.64
46007;BME280;31738;50.188;8.524;2023-12-04T11:10:32;98544.53;;;0.61;74.42
46007;BME280;31738;50.188;8.524;2023-12-04T11:13:16;98531.41;;;0.55;73.40
46007;BME280;31738;50.188;8.524;2023-12-04T11:15:45;98525.31;;;0.54;74.50
46007;BME280;31738;50.188;8.524;2023-12-04T11:18:14;98513.31;;;0.58;74.25
46007;BME280;31738;50.188;8.524;2023-12-04T11:21:11;98505.22;;;0.53;74.05
46007;BME280;31738;50.188;8.524;2023-12-04T11:23:37;98518.59;;;0.58;74.42
46007;BME280;31738;50.188;8.524;2023-12-04T11:26:04;98518.50;;;0.65;74.54
46007;BME280;31738;50.188;8.524;2023-12-04T11:28:32;98514.22;;;0.70;74.06
46007;BME280;31738;50.188;8.524;2023-12-04T11:30:59;98503.81;;;0.75;74.06
46007;BME280;31738;50.188;8.524;2023-12-04T11:33:34;98499.78;;;0.73;73.46
46007;BME280;31738;50.188;8.524;2023-12-04T11:36:11;98493.56;;;0.67;73.38
46007;BME280;31738;50.188;8.524;2023-12-04T11:38:37;98491.34;;;0.64;74.23
46007;BME280;31738;50.188;8.524;2023-12-04T11:41:14;98490.16;;;0.60;73.86
46007;BME280;31738;50.188;8.524;2023-12-04T11:43:42;98493.81;;;0.59;73.94
46007;BME280;31738;50.188;8.524;2023-12-04T11:46:09;98482.09;;;0.55;73.70
46007;BME280;31738;50.188;8.524;2023-12-04T11:48:37;98478.06;;;0.46;74.08
46007;BME280;31738;50.188;8.524;2023-12-04T11:51:04;98468.34;;;0.47;74.60
46007;BME280;31738;50.188;8.524;2023-12-04T11:53:30;98473.22;;;0.43;74.49
46007;BME280;31738;50.188;8.524;2023-12-04T11:55:56;98457.56;;;0.48;74.81
46007;BME280;31738;50.188;8.524;2023-12-04T11:58:24;98452.09;;;0.50;74.68
46007;BME280;31738;50.188;8.524;2023-12-04T12:00:51;98441.53;;;0.50;74.89
46007;BME280;31738;50.188;8.524;2023-12-04T12:03:17;98435.44;;;0.49;74.95
46007;BME280;31738;50.188;8.524;2023-12-04T12:05:43;98434.44;;;0.50;75.08
46007;BME280;31738;50.188;8.524;2023-12-04T12:08:09;98418.19;;;0.53;75.22
46007;BME280;31738;50.188;8.524;2023-12-04T12:10:35;98409.81;;;0.56;75.76
46007;BME280;31738;50.188;8.524;2023-12-04T12:13:00;98400.88;;;0.57;75.49
46007;BME280;31738;50.188;8.524;2023-12-04T12:15:28;98406.44;;;0.49;75.83
46007;BME280;31738;50.188;8.524;2023-12-04T12:18:01;98395.75;;;0.44;76.14
46007;BME280;31738;50.188;8.524;2023-12-04T12:20:26;98389.47;;;0.39;76.24
46007;BME280;31738;50.188;8.524;2023-12-04T12:22:52;98384.06;;;0.34;76.85
46007;BME280;31738;50.188;8.524;2023-12-04T12:25:17;98370.88;;;0.34;76.79
46007;BME280;31738;50.188;8.524;2023-12-04T12:27:44;98360.47;;;0.39;77.17
46007;BME280;31738;50.188;8.524;2023-12-04T12:30:10;98353.81;;;0.36;77.35
46007;BME280;31738;50.188;8.524;2023-12-04T12:32:36;98347.16;;;0.34;77.32
46007;BME280;31738;50.188;8.524;2023-12-04T12:35:02;98331.56;;;0.32;77.43
46007;BME280;31738;50.188;8.524;2023-12-04T12:37:28;98341.66;;;0.35;77.43
46007;BME280;31738;50.188;8.524;2023-12-04T12:39:54;98330.94;;;0.30;78.13
46007;BME280;31738;50.188;8.524;2023-12-04T12:42:21;98334.63;;;0.29;77.86
46007;BME280;31738;50.188;8.524;2023-12-04T12:44:48;98330.34;;;0.28;78.03
46007;BME280;31738;50.188;8.524;2023-12-04T12:47:14;98316.78;;;0.25;78.03
46007;BME280;31738;50.188;8.524;2023-12-04T12:49:40;98307.72;;;0.21;78.31
46007;BME280;31738;50.188;8.524;2023-12-04T12:52:05;98310.16;;;-0.03;79.29
46007;BME280;31738;50.188;8.524;2023-12-04T12:54:42;98300.81;;;-0.23;81.12
46007;BME280;31738;50.188;8.524;2023-12-04T12:57:08;98295.38;;;-0.28;81.25
46007;BME280;31738;50.188;8.524;2023-12-04T12:59:35;98280.31;;;-0.21;80.29
46007;BME280;31738;50.188;8.524;2023-12-04T13:02:00;98278.88;;;-0.17;79.87